Filtrer par Nom Sexe Groupe d'age
Gassin-Golfe de Saint Tropez MedioFondo 2016
RG. DOS. TEMPS CAT RG. POINTS
1 2101 LAMBOT JULIEN 03:56:07 D 1 150.00 ENGIS, BELGIQUE
2 2189 AERTS BRICE 03:58:11 D 2 149.50 ECHIROLLES, FRANCE
3 2043 VALENTI JEAN PHILIPPE 03:58:39 E 1 150.00 LE CANNET, FRANCE
4 2141 AGNIEL NICOLAS 04:00:43 C 1 150.00 ROQUEFORT LA BEDOULE, France
5 2160 CHENU REMI 04:00:45 D 3 149.00 LA CIOTAT, France
6 2155 LOPEZ DORIAN 04:00:45 D 4 148.50 TOULON, FRANCE
7 2317 ROUX BENJAMIN 04:01:48 C 2 149.50 LA CROIX VALMER, FRANCE
8 2364 CAMELLLINI JULIEN 04:03:40 D 5 148.00 , FRANCE
9 2194 JAVOS LUC 04:07:32 E 2 149.50 AIX-EN-PROVENCEIX EN PROVENCE, France
10 2242 TALON THOMAS 04:08:30 C 3 149.00 PEYMEINADE, FRANCE
11 2035 TINTI KEVIN 04:09:34 C 4 148.50 MONS, FRANCE
12 2313 ROUX JANICK 04:09:35 E 3 149.00 LE LAVANDOU, France
13 2157 RIVALAN YOHANN 04:09:42 E 4 148.50 HYERES, FRANCE
14 2158 CAMERA JULIEN 04:09:50 D 6 147.50 LA VALETTE, FRANCE
15 2218 MANDELLI JEAN PHILIPPE 04:09:53 E 5 148.00 MARSEILLE, France
16 2361 KRICKEL ALAIN 04:10:25 E 6 147.50 JALHAY, BELGIQUE
17 2024 MICHEL PASCAL 04:10:30 F 1 150.00 CANNES, FRANCE
18 2316 ISNARD NICOLAS 04:11:15 C 5 148.00 Saint-Tropez, France
19 2175 GRAY MARK 04:11:20 E 7 147.00 WIMBLEDON, Royaume-uni
20 2355 COTTIN DENIS 04:11:23 F 2 149.50 Radinghem en weppes, France
21 2052 DI FRUSCIA THOMAS 04:11:35 C 6 147.50 VARCES ALLIERES ET RISSET, FRANCE
22 2002 RONTEIX THOMAS 04:11:39 C 7 147.00 LE CANNET, FRANCE
23 2127 FRANCO GUILLAUME 04:11:41 D 7 147.00 FIGANIERES, FRANCE
24 2115 RICHARD REGIS 04:11:44 F 3 149.00 POULX, France
25 2188 SOULAS ANTHONY 04:11:50 D 8 146.50 TOULON, FRANCE
26 2143 MANTO PATRICK 04:11:52 F 4 148.50 LA CIOTAT, France
27 2144 FROMENT JULIEN 04:11:56 C 8 146.50 LERY, FRANCE
28 2215 MAREK HERER 04:12:22 C 9 146.00 NICE, France
29 2167 BABOU LIONEL 04:12:28 E 8 146.50 TOULON, FRANCE
30 2161 CANOLLE JEROME 04:12:31 E 9 146.00 SANARY, FRANCE
31 2368 GONZALES LAURENT 04:12:37 D 9 146.00 LE ROURET, FRANCE
32 2214 BLEYNAT ERIC 04:12:41 E 10 145.50 MARSEILLE, FRANCE
33 2193 BOUCAULT CYRIL 04:12:45 D 10 145.50 ALLAUCH, FRANCE
34 2227 MONTANO THOMAS 04:13:31 D 11 145.00 HYŠRES, FRANCE
35 2366 GERARD OLIVIER 04:16:36 E 11 145.00 , FRANCE
36 2174 ROMANO LAURENT 04:16:53 E 12 144.50 CASSIS, FRANCE
37 2326 MASURIER AXEL 04:16:58 D 12 144.50 , FRANCE
38 2146 THIEL SEBASTIEN 04:17:05 D 13 144.00 LA FOUILLOUSE, FRANCE
39 2208 SPRUNGARD CEDRIC 04:18:55 E 13 144.00 FOUCHY, FRANCE
40 2211 REBUFFAT PHILIPPE 04:19:18 C 10 145.50 VINON SUR VERDON, FRANCE
41 2362 SCHAEFFLER GUILLAUME 04:19:30 D 14 143.50 , FRANCE
42 2292 THYOUX GUILLAUME 04:19:34 E 14 143.50 VIDAUBAN, FRANCE
43 2182 BARTALUCCI MARC 04:19:43 E 15 143.00 AGAY, FRANCE
44 2153 DESPLANQUES FREDERIC 04:20:16 E 16 142.50 LA SEYNE SUR MER, FRANCE
45 2389 MORTIER JEREMY 04:20:32 C 11 145.00 FREJUS, FRANCE
46 2226 LLANES SYLVAIN 04:20:40 D 15 143.00 LA VALETTE DU VAR, FRANCE
47 2177 SACCENTI BENJAMIN 04:21:08 C 12 144.50 GRASSE, FRANCE
48 2154 PETITE MARC 04:21:17 D 16 142.50 AUSSON, France
49 2130 GARDELLA MAXIME 04:21:57 D 17 142.00 PLAN DE CUQUES, FRANCE
50 2314 LEROUX MICKAEL 04:22:42 E 17 142.00 , FRANCE
51 2327 FAGNON STEPHAN 04:22:57 E 18 141.50 BORMES LES MIMOSAS, FRANCE
52 2185 USSEGLIO CHRISTOPHE 04:22:58 E 19 141.00 AUX MARAIS, FRANCE
53 2311 DIAZ JULIO 04:23:08 E 20 140.50 LES ISSAMBRES, FRANCE
54 2387 BOZZETTO PATRICE 04:23:37 E 21 140.00 La valette du var, France
55 2378 BOGO DAVID 04:23:37 E 22 139.50 , FRANCE
56 2332 LAFRANCHISE DIDIER 04:23:50 G1 1 150.00 Cavalaire sur mer, France
57 2281 SAINZ ANDRE 04:24:42 G2 1 150.00 CHATONNAY, France
58 2257 LEGUAY GEOFFREY 04:24:43 D 18 141.50 LA VALETTE DU VAR, FRANCE
59 2145 LEPERLIER ALEXANDRE 04:24:46 D 19 141.00 PERTUIS, FRANCE
60 2370 COLLINS VICTORIA 04:24:57 AB 1 150.00 , FRANCE
61 2363 MULLER CYRIANE 04:25:11 A 1 150.00 , FRANCE
62 2394 POTIER SBASTIEN 04:25:12 E 23 139.00 HOUDAIN, FRANCE
63 2279 LORENT JEAN FRANCOIS 04:26:19 F 5 148.00 LA LONDE LES MAURES, FRANCE
64 2305 LATINI THIERRY 04:26:26 F 6 147.50 GASSIN, FRANCE
65 2276 TESIO PAOLO 04:26:26 E 24 138.50 OSASCO (TO), ITALIE
66 2309 CHERIAUX ADRIEN 04:27:06 C 13 144.00 LA CROIX VALMER, FRANCE
67 2268 PRESSOIR GERARD 04:27:18 G1 2 149.50 SOUPPES SUR LOING, FRANCE
68 2294 GRONDIN JOSEPH ALDERIZ 04:28:16 F 7 147.00 HYERES, FRANCE
69 2053 NICOLAS ALEXANDRE 04:28:28 D 20 140.50 CHATEAURENARD, FRANCE
70 2274 COURTHALIAC DENIS 04:29:21 E 25 138.00 , FRANCE
71 2109 GALLO CHRISTOPHE 04:29:42 E 26 137.50 PLAN DE LA TOUR, FRANCE
72 2235 VILLARROYA JEAN BAPTISTE 04:29:43 C 14 143.50 MARSEILLE, FRANCE
73 2392 DEWAELE WILFRIED 04:29:46 E 27 137.00 ROBECQ, France
74 2033 DAUGERON FREDERIC 04:30:05 D 21 140.00 PLAISIR, France
75 2236 DUQUESNOY ERIC 04:30:27 E 28 136.50 REBREUVE RANCHICOURT, France
76 2369 BOUREL PASCAL 04:30:41 F 8 146.50 BOSC GUERARD ST ADRIEN, France
77 2312 MARQUEZ PHILIPPE 04:30:53 E 29 136.00 SAINT PIERRE DE CURTILLE, FRANCE
78 548 PAROLA MICHELE 04:31:00 E 30 135.50 CUENO, ITALIE
79 2134 GIORDANENGO JACQUES 04:31:03 F 9 146.00 TRANS EN PROVENCE, FRANCE
80 2289 CAMILLIERI STEPHANE 04:31:16 J 1 150.00 MARSEILLE, FRANCE
81 2245 WALTHER MICHAEL 04:31:43 E 31 135.00 LES TOURETTES, FRANCE
82 2026 BARBAGELATA PASCAL 04:33:30 E 32 134.50 BEAUSOLEIL, FRANCE
83 2382 HERNANDEZ JEAN PHILIPPE 04:34:07 E 33 134.00 AUPS, FRANCE
84 2119 ROMAIN EMMANUEL 04:34:30 E 34 133.50 ARGENT SUR SAULDRE, FRANCE
85 2054 KUEHN INGO 04:35:13 E 35 133.00 AIX EN PROVENCE, France
86 2233 SCHAUSS RAOUL 04:35:51 D 22 139.50 , FRANCE
87 2092 VARETTI ANDREA 04:35:58 D 23 139.00 TORINO, ITALIE
88 2091 BELLONE MARCO 04:35:58 D 24 138.50 TORINO, Italie
89 2170 FLOREANI LAURENT 04:35:59 D 25 138.00 Antibes, France
90 2066 MAILHE CRISTOL 04:36:19 C 15 143.00 ROQUEFORT-LA-BEDOULE, FRANCE
91 2123 LANDON YVES 04:36:29 F 10 145.50 CHALAIN LE COMTAL, France
92 2164 MAILLIET PAUL 04:36:50 G1 3 149.00 SANARY, France
93 2008 DEHOVE THOMAS 04:37:04 E 36 132.50 LUDRES, France
94 2270 POLGEE STEPHANE 04:37:20 E 37 132.00 TOULON, FRANCE
95 2168 FEUILLET GILLES 04:37:49 F 11 145.00 SOLLIES VILLES, FRANCE
96 2096 FERRENT LAURE ANNE 04:38:22 A 2 149.50 La côte Saint André, France
97 2179 GAVIGNET JEROME 04:38:43 C 16 142.50 CHEVIGNY SAINT SAUVEUR, FRANCE
98 2107 BONNET ALAIN 04:39:38 G1 4 148.50 BOUC BEL AIR, France
99 2151 DABONNEAU ERIC 04:40:06 E 38 131.50 DRAGUIGNAN, FRANCE
100 2106 SKRIVAN FLEUR 04:40:18 AB 2 149.50 BOUC BEL AIR, France
101 2385 ROUANET MICHEL 04:40:28 F 12 144.50 SAINT-RAPHAǮL, FRANCE
102 2336 ABBATIELLO J CLAUDE 04:40:49 E 39 131.00 HYERES, FRANCE
103 2260 BEVILACQUA BRUNO 04:41:06 F 13 144.00 BORMES LES MIMOSAS, FRANCE
104 2085 VIX ROMAIN 04:41:06 C 17 142.00 AIX EN PROVENCE, France
105 2126 PILIPAK GREGORY 04:41:16 E 40 130.50 MARSEILLE, France
106 2388 RIOTTEAU JOEL 04:41:50 E 41 130.00 AIX EN PROVENCE, FRANCE
107 2159 MORINO DENIS 04:41:57 D 26 137.50 TOULON, FRANCE
108 2379 MALFATI NICOLAS 04:42:25 D 27 137.00 , FRANCE
109 2163 BERTET ALAIN 04:42:38 G2 2 149.50 SANARY, FRANCE
110 2209 LACHAMBRE CHRISTOPHE 04:42:58 E 42 129.50 DRAGUIGNAN, FRANCE
111 2111 USUNIER THIERRY 04:43:21 E 43 129.00 GASSIN, FRANCE
112 2120 PETIT DOMINIQUE 04:43:26 F 14 143.50 COGOLIN, FRANCE
113 2137 BONNABEL RICHARD 04:43:30 E 44 128.50 LA FARLEDE, FRANCE
114 2293 JOST JEAN PAUL 04:43:39 F 15 143.00 SETE, FRANCE
115 2365 BOUVIER FABIEN 04:43:57 E 45 128.00 SAINT MAURICE L EXIL, FRANCE
116 2283 GARCIN PASCAL 04:44:09 F 16 142.50 MARCOLLIN, FRANCE
117 2280 CORDIER J.GABRIEL 04:44:39 G1 5 148.00 AGUESSAC, FRANCE
118 2073 LEVY MORGAN 04:44:58 C 18 141.50 MARSEILLE, FRANCE
119 518 ? ? 04:46:28 J 2 149.50 ,
120 2334 MAYOU SAMI 04:46:56 D 28 136.50 , FRANCE
121 2291 PARZY FREDERIC 04:47:02 D 29 136.00 HYERES, FRANCE
122 338 MEINESZ RICHARD 04:47:52 E 46 127.50 LONDON, Royaume-Uni
123 337 PALMER TIM 04:47:52 E 47 127.00 LONDON, Royaume-Uni
124 2210 GALLO ALEXANDRE 04:48:00 G1 6 147.50 NICE, FRANCE
125 2166 VEZZOSO CHRISTOPHE 04:48:03 E 48 126.50 TOULON, FRANCE
126 2074 FLOQUET STEPHANE 04:48:16 C 19 141.00 MAZAN, France
127 2375 INGARGIOLA OLIVIER 04:48:23 E 49 126.00 , FRANCE
128 2229 RAFFIN DIDIER 04:48:47 G1 7 147.00 LUYNES, FRANCE
129 413 GALLOY DIDIER 04:49:04 E 50 125.50 PARIS, FRANCE
130 2251 HOURTOLOU THIERRY 04:49:12 E 51 125.00 LE CANNET DES MAURES, FRANCE
131 2296 LA ROCCA PIERRE 04:49:52 F 17 142.00 HYERES, FRANCE
132 2252 HOURTOLOU DIDIER 04:50:05 F 18 141.50 BASTIA, FRANCE
133 2374 ROUSIER CHRISTOPHE 04:51:17 E 52 124.50 FREJUS, FRANCE
134 2186 VARGAS FREDERIQUE 04:51:23 E 53 124.00 AGAY, FRANCE
135 2075 RADDE NICOLAS 04:51:34 E 54 123.50 LA CIOTAT, FRANCE
136 2264 LUCIO JEAN 04:51:51 F 19 141.00 SAINT RAPHAEL, France
137 110 EHRET STEPHANE 04:52:23 D 30 135.50 CAGNES SUR MER, France
138 2308 CARISEZ GILLES 04:52:27 F 20 140.50 SAINT TROPEZ, FRANCE
139 2205 BORGHETTI FRANCK 04:52:37 E 55 123.00 FAVERGES, FRANCE
140 2230 VINH MAU THIERRY 04:53:00 F 21 140.00 HESPERANGE, LUXEMBOURG
141 2231 PALOU JACQUES 04:53:32 F 22 139.50 MOURS ST EUSEBE, FRANCE
142 2202 POLIZZI SANDRINE 04:53:37 A 3 149.00 NICE, FRANCE
143 2121 NAVARRO SERGE 04:53:51 F 23 139.00 MARTIGUES, FRANCE
144 2006 DESGOUTTE PASCAL 04:54:02 F 24 138.50 FONTANES, FRANCE
145 2285 LOIODICE JULIEN 04:54:25 D 31 135.00 SAINT MARTIN D HERES, FRANCE
146 2367 BERGENDAHL MARI 04:54:45 A 4 148.50 , FRANCE
147 2391 TRINEL REGIS 04:54:55 G1 8 146.50 BETHUNE, France
148 2258 CARREIRA CEDRIC 04:56:06 E 56 122.50 LA CHAPELLE DE LA TOUR, FRANCE
149 2259 HUMANN PHILIPPE 04:56:34 G1 9 146.00 SAINT RAPHAEL, FRANCE
150 2307 LAGORIO ERIC 04:56:35 F 25 138.00 , FRANCE
151 2132 DUNAN DANIEL 04:56:43 G1 10 145.50 VILLEFRANCHE SUR MER, FRANCE
152 2082 SIAUD JEAN LOUIS 04:56:48 F 26 137.50 MARSEILLE, France
153 2040 DO ROSARIO JOHN 04:56:56 D 32 134.50 croix valmer, France
154 2248 VERRIER ANTOINE 04:56:57 E 57 122.00 CAEN, France
155 2372 ? ? 04:57:39 J 3 149.00 ,
156 2331 DI GIOVANNI MICHEL 04:58:03 G1 11 145.00 VALBERG, FRANCE
157 2395 FORMEAU CHRISTOPHE 04:58:42 E 58 121.50 Peyrolles en Provence, France
158 2333 KAYSSERLIAN GILBERT 04:58:57 G1 12 144.50 ALLAUCH, FRANCE
159 2282 VARESANO FRANK 04:58:58 C 20 140.50 EYBENS, FRANCE
160 2017 FOREST JEAN-EMMANUEL 04:59:04 F 27 137.00 BONDUES, FRANCE
161 2036 GERMANAUD GILBERT 04:59:08 E 59 121.00 GLANGES, FRANCE
162 2184 PALPANT JEAN MARC 04:59:08 E 60 120.50 MARSEILLE, FRANCE
163 2224 SENEQUIER ANTHONY 04:59:16 C 21 140.00 LA GARDE FREINET, FRANCE
164 2325 SEILLE CHARLY 04:59:20 D 33 134.00 COGOLIN, FRANCE
165 2183 CORREARD JEAN-MICHEL 04:59:21 F 28 136.50 MARSEILLE, FRANCE
166 2133 BECCHETTI NANO 04:59:42 F 29 136.00 VILLEFRANCHE SUR MER, FRANCE
167 2199 ROBIC LAURENT 04:59:42 E 61 120.00 HYERES, FRANCE
168 2212 PIOTROWSKI JULIEN 04:59:43 C 22 139.50 ARLON, BELGIQUE
169 2380 FERRE GERARD 05:00:12 F 30 135.50 COLOMARS, FRANCE
170 2234 VILLARROYA JEAN CHRISTOPHE 05:01:42 E 62 119.50 MARSEILLE, FRANCE
171 2384 RAUEL CHRISTOPHE 05:02:05 E 63 119.00 , FRANCE
172 2350 TOUQUET JEROME 05:02:21 E 64 118.50 , FRANCE
173 2049 MORAND DIDIER 05:02:30 E 65 118.00 GRENOBLE, FRANCE
174 2162 NEGRI PATRICE 05:02:36 F 31 135.00 TOULON, FRANCE
175 2359 ITASSE ERIC 05:02:56 D 34 133.50 , FRANCE
176 2206 GHINI GEORGES 05:03:17 G2 3 149.00 L ESCARENE, FRANCE
177 2195 PINSON REGIS 05:04:27 G1 13 144.00 Varennes, France
178 2149 SERGENT THIERRY 05:04:41 E 66 117.50 MEYZIEU, FRANCE
179 2156 BESSONE MARION 05:04:51 A 5 148.00 LA CIOTAT, France
180 2340 SOSSON FRANCK 05:05:17 E 67 117.00 , FRANCE
181 2357 COLLET JULIEN 05:05:20 E 68 116.50 CHARBONNIERES LES VIELLES, FRANCE
182 2097 BONETTI FREDERIC 05:05:42 E 69 116.00 LIVET, FRANCE
183 2377 VAN RHYN FREDERIC 05:05:47 F 32 134.50 , FRANCE
184 2150 WALBROU JOHN 05:06:12 E 70 115.50 MERVILLE, FRANCE
185 2306 SALINESI PHILIPPE 05:06:33 F 33 134.00 SAINT TROPEZ, France
186 2142 COOPER ANDREW 05:07:38 F 34 133.50 MENTON, France
187 141 ? ? 05:08:59 J 4 148.50 ,
188 2201 POLIZZI JEREMY 05:09:22 D 35 133.00 NICE, FRANCE
189 2176 CHOY LILLIAN 05:10:20 AB 3 149.00 WIMBLEDON, Royaume-uni
190 2381 ROUAND JORDANE 05:10:40 D 36 132.50 LA LONDE, FRANCE
191 2243 MAUNIER ERIC 05:10:53 E 71 115.00 LA BEGUDE DE MAZENC, France
192 2110 ? ? 05:12:10 J 5 148.00 ,
193 2037 HEY GRAHAM 05:12:20 F 35 133.00 CHAMPSAC, FRANCE
194 2356 GUICHART J.PIERRE 05:12:50 E 72 114.50 CERNAY LA VILLE, FRANCE
195 2072 GANDIN DIDIER 05:13:00 F 36 132.50 SAINTE-MAXIME, FRANCE
196 2171 DUMESGNIL ALAIN 05:13:16 G1 14 143.50 LA CIOTAT, FRANCE
197 2117 HERBAUT PHILIPPE 05:13:20 F 37 132.00 NICE, FRANCE
198 2323 TETAZ OLIVIER 05:13:31 F 38 131.50 MOUXY, France
199 486 RINFRAY GILLES 05:16:01 F 39 131.00 CANNES LA BOCCA, FRANCE
200 2354 BIROT PASCAL 05:16:49 E 73 114.00 VOISINS LE BRETONNEU, FRANCE
201 2196 BALLESTRACCI ROBERT 05:16:50 F 40 130.50 MARSEILLE, FRANCE
202 2261 VAN DER MEULEN AREND 05:17:16 F 41 130.00 JOURE, Pays-Bas
203 2301 MARTY PASCAL 05:17:29 E 74 113.50 UR, FRANCE
204 2219 VOUILLON JEAN PHILIPPE 05:17:40 F 42 129.50 GRASSE, FRANCE
205 2148 ANDEVERT ARNAUD 05:17:41 E 75 113.00 Talloires, France
206 2373 MALLET JOEL 05:17:51 G1 15 143.00 , FRANCE
207 2277 STOUVENOT JEAN JACQUES 05:18:14 G1 16 142.50 INGERSHEIM, FRANCE
208 2341 BOUCHET SEBASTIEN 05:18:33 D 37 132.00 , FRANCE
209 2342 LEGROS CHRISTIAN 05:19:07 F 43 129.00 HUSSEREN LES CHŸTEAUX, France
210 2244 RONCA SOPHIE 05:19:32 AB 4 148.50 GARDANNE, FRANCE
211 2221 THUREAU DANIEL 05:20:06 G1 17 142.00 CHOLET, France
212 2278 NICOLI SERGE 05:20:15 F 44 128.50 JOUY LE MOUTIER, France
213 2253 PHILIPONET ETIENNE 05:20:56 E 76 112.50 BALARUC LES BAINS, FRANCE
214 2383 SANCHEZ DAVID 05:21:36 E 77 112.00 TARADEAU, FRANCE
215 2376 VAN DE VOORDE DAMIEN 05:21:53 E 78 111.50 OLLIOULES, FRANCE
216 2386 PARISOT JEAN JACQUES 05:21:57 F 45 128.00 COUDOUX, FRANCE
217 19 SELS RENART 05:22:10 G1 18 141.50 TESSENDERLO, BELGIQUE
218 2181 GORIN CHRISTOPHE 05:22:31 F 46 127.50 CHARLY, FRANCE
219 2271 MONFORT ALAIN 05:22:43 D 38 131.50 LIERNEUX, BELGIQUE
220 2005 HARMEGNIES LUC 05:22:59 F 47 127.00 MARCQ EN BAROEUL, France
221 2222 ROSSERO JEAN MICHEL 05:23:46 F 48 126.50 CROLLES, France
222 2084 FIAT MARTY 05:23:58 C 23 139.00 VIZILLE, FRANCE
223 173 TANCREZ ARNAUD 05:24:27 D 39 131.00 MANDELIEU LA NAPOULE, FRANCE
224 2071 JENZER GEORGES ERIC 05:24:46 F 49 126.00 LES PONTS DE MARTEL, SUISSE
225 535 RUSTIN LOUIS 05:25:11 E 79 111.00 LA CHARTRE SUR LE LOIR, France
226 2187 DUTAILLY PHILIPPE 05:26:31 F 50 125.50 MARQUETTE EN OSTREVANT, FRANCE
227 2352 LE MEUR FRANCK 05:26:43 E 80 110.50 LYON, FRANCE
228 2284 HARHOUR MILOUD 05:26:58 G1 19 141.00 GRENOBLE, FRANCE
229 2286 POINARD AURELIE 05:26:59 A 6 147.50 SAINT MARTIN D HERES, FRANCE
230 2051 MONSIEUR PASCAL 05:27:24 F 51 125.00 SAINT AUBIN EN BRAY, FRANCE
231 2329 SARNIN CHRISTOPHE 05:28:15 F 52 124.50 MARSEILLE, FRANCE
232 2330 BOURON ANNE 05:28:27 AB 5 148.00 CHORGES, FRANCE
233 2086 MIN CEDRIC 05:29:15 E 81 110.00 LA LONDE LES MAURES, France
234 2138 MOUTTET JEAN-JACQUES 05:29:18 F 53 124.00 LE PRADET (83), FRANCE
235 2246 HENRY FRANCIS 05:31:08 F 54 123.50 REIMS, FRANCE
236 2254 PHILIPONET ESTEBAN 05:31:16 C 24 138.50 BALARUC LES BAINS, FRANCE
237 2140 DELEAGE NICOLAS 05:31:21 C 25 138.00 ANNECY, FRANCE
238 2056 JUSTIENT MICHAEL 05:31:25 D 40 130.50 ARCUEIL, FRANCE
239 2272 FERMOND JEROME 05:31:44 D 41 130.00 UPIE, FRANCE
240 2349 BERTIN STEPHANE 05:31:58 E 82 109.50 BARCELONNETTE, FRANCE
241 2239 AUDISIO STEPHANE 05:32:02 E 83 109.00 GRASSE, FRANCE
242 2197 JOURDAN VERONIQUE 05:32:07 B 1 150.00 MARSEILLE, FRANCE
243 2262 QUARTELLI GERARD 05:32:09 G2 4 148.50 L ALPE D HUEZ, FRANCE
244 2169 ARGENTA PATRICK 05:32:20 G1 20 140.50 06130, GRASSE
245 2030 LAHOUSSINE YANNICK 05:32:21 E 84 108.50 ANTIBES, FRANCE
246 2013 ARNAULT OLIVIER 05:34:13 E 85 108.00 TOULON, FRANCE
247 2266 TREF ALBERT 05:34:16 F 55 123.00 SAINTE MAXIME, FRANCE
248 2198 BONNET CHARLES 05:34:32 E 86 107.50 CHATEAUNEUF DU PAPE, FRANCE
249 2347 DE BAETS KRISTOF 05:34:36 E 87 107.00 JAUSIERS, FRANCE
250 2238 CHIONA MARC 05:34:37 G1 21 140.00 SAINTE MAXIME, FRANCE
251 2088 LENOIR DANIEL 05:36:02 G1 22 139.50 PEGOMAS, FRANCE
252 2028 MARQUIS JEAN 05:37:27 G2 5 148.00 AIX LES BAINS, FRANCE
253 2061 PIARD JEAN-MARIE 05:37:57 G2 6 147.50 NOGENT SUR OISE, FRANCE
254 2338 ROULEZ FLORIAN 05:38:20 C 26 137.50 CHATEL, FRANCE
255 2300 CARDONA PAUL 05:38:57 F 56 122.50 LE LAVANDOU, FRANCE
256 2310 DOITRAND EMMANUEL 05:39:36 D 42 129.50 CHATILLON LA PALUD, FRANCE
257 2269 CHARRIAU CHRISTOPHE 05:40:14 E 88 106.50 VILLEBION, FRANCE
258 2319 COSTEUR CHRISTOPHE 05:40:46 F 57 122.00 LINSELLES, FRANCE
259 2335 TERZIBACHIAN FRANCK 05:42:04 G2 7 147.00 MARSEILLE, FRANCE
260 2057 DUCATE FREDERIC 05:42:33 E 89 106.00 SAINT JORIOS, FRANCE
261 2059 PROUST CHRISTIAN 05:42:58 G2 8 146.50 BRIGNOLES, FRANCE
262 2328 PAUL NICOLAS 05:43:38 D 43 129.00 ST JULIEN D ASSE, FRANCE
263 2099 DEMULLIER GAUWIN 05:44:13 D 44 128.50 FREJUS, FRANCE
264 2217 GIL MICHEL 05:44:34 F 58 121.50 GIGNAC LA NERTHE, FRANCE
265 2014 LEFEVRE FRANCK 05:44:50 E 90 105.50 PEZARCHES, France
266 2390 DELAUTRE JEAN PIERRE 05:46:34 G1 23 139.00 CALONNE RICOUART, FRANCE
267 2139 SYREN AUDREY 05:47:12 A 7 147.00 FREJUS, FRANCE
268 505 CUCCIA SERGE 05:48:26 F 59 121.00 MARIGNANE, France
269 2303 CISARI GIANWIGI 05:48:41 F 60 120.50 , ITALIE
270 2063 COT JEAN JACQUES 05:48:57 F 61 120.00 AVEZAC-PRAT-LAHITTE, FRANCE
271 2207 DUPUIS JEAN LOUIS 05:49:39 G2 9 146.00 LESTREM, France
272 2273 MARTINON DENIS 05:52:16 F 62 119.50 LYON, FRANCE
273 2104 JEAN FREDERIC 05:53:04 C 27 137.00 ROMAN SUR ISERE, FRANCE
274 2129 RUDELLE PHILIPPE 05:54:19 F 63 119.00 LE PLESSIS ROBINSON, FRANCE
275 2371 LALEVELE PASCAL 05:54:29 F 64 118.50 , FRANCE
276 2105 BATTELIER LOIC 05:54:44 C 28 136.50 ROMANS-SUR-ISŠRE, FRANCE
277 2275 SUMMERFIELD COLIN 05:54:55 G2 10 145.50 CAMBERLEY, Royaume-uni
278 2339 TANCOGNE CHRISTOPHE 05:54:56 E 91 105.00 Marcon, France
279 2108 BUISSART LAURENT 05:55:11 D 45 128.00 CANNES, France
280 2345 FARRUGIA XAVIER 05:55:23 E 92 104.50 Luceau, France
281 2034 VOISIN JEAN YVES 05:55:47 G1 24 138.50 VERT EN DROUAIS, France
282 2360 FOURNIER SYLVAIN 05:55:51 C 29 136.00 ROMANS-SUR-ISŠRE, FRANCE
283 2125 DROGUE CHANTAL 05:55:59 B 2 149.50 CHATILLON SAINT JEAN, FRANCE
284 521 FEIERSTEIN ARMANCE 05:56:27 AB 6 147.50 PETANGE, LUXEMBOURG
285 2124 PATRAS DENIS 05:56:28 F 65 118.00 CHATILLON SAINT JEAN, FRANCE
286 2190 CORBEL GEORGES 05:58:17 G2 11 145.00 SAINT RAPHAEL, FRANCE
287 2324 GUERIN JEAN PIERRE 05:59:06 G1 25 138.00 GRENOBLE, FRANCE
288 2320 GUERIN ALEXANDRE 05:59:07 G1 26 137.50 VIZILLE, FRANCE
289 2321 RICHER PATRICK 05:59:17 G1 27 137.00 VIZILLE, FRANCE
290 2083 perny gerard 05:59:34 E 93 104.00 ROMANS, FRANCE
291 2223 BECAM SYLVIANE 06:00:03 B 3 149.00 CHOLET, France
292 2322 BORRONI LUIGI 06:00:37 G1 28 136.50 TORINO, ITALIE
293 2078 RIBAS MARC 06:01:00 F 66 117.50 neuilly sur seine, France
294 2240 CHOMARAT DAMIEN 06:01:07 C 30 135.50 LA GRAND CROIX, FRANCE
295 2068 SANCHEZ ANGEL 06:01:19 F 67 117.00 TOULOUSE, France
296 2067 GINESTY ANTOINE 06:01:26 F 68 116.50 TOULOUSE, France
297 2060 DARBLADE BRUNO 06:01:45 F 69 116.00 HYERES, FRANCE
298 456 MOREAU EDDY 06:02:12 D 46 127.50 FREJUS, FRANCE
299 2016 VUILLEMET OLIVIER 06:03:42 E 94 103.50 TOURNAN EN BRIE, France
300 2048 SEDENO JOSE 06:03:44 E 95 103.00 COGOLIN, FRANCE
301 2178 HOOGZAAD MANOESKA 06:06:16 AB 7 147.00 IJmuiden, Pays-Bas
302 2348 HARROP PETER 06:06:54 G1 29 136.00 SANARY SUR MER, FRANCE
303 2093 HEIN ARNAUD 06:07:35 E 96 102.50 SAINT-RAPHAÓL, FRANCE
304 2055 KUEHN LYDIA 06:08:03 AB 8 146.50 AIX EN PROVENCE, France
305 2128 SAROCCHI JEAN CHARLES 06:08:18 F 70 115.50 LA GARDE, FRANCE
306 2118 BAURET MALORIE 06:08:19 AB 9 146.00 HYERES, FRANCE
307 2220 KLAPPROTH MARIJAN 06:08:48 E 97 102.00 AIX EN PROVENCE, ALLEMAGNE
308 2228 ARHUR GERARD 06:09:53 G2 12 144.50 BLAINCOURT LES PRECY, FRANCE
309 2256 REVIGLIO JEAN-MARIE 06:10:40 G1 30 135.50 LARNOD, FRANCE
310 2180 CORDIER YANNICK 06:12:07 E 98 101.50 ECULLY, FRANCE
311 489 LANDOUZY PAUL 06:12:31 E 99 101.00 FAYET, France
312 2249 BROUWER REIND JAN 06:12:52 E 100 100.50 AMSTERDAM, Pays-bas
313 2152 JOFRE FERNAND 06:14:29 G2 13 144.00 LAUZERTE, FRANCE
314 2103 BILLON SEBASTIEN 06:15:41 E 101 100.00 THIONVILLE, France
315 2136 SAMUEL PATRICE 06:16:33 G1 31 135.00 SARTROUVILLE, FRANCE
316 2263 GALLOUX CHRISTOPHE 06:16:34 E 102 99.50 BEAUCAMPS LIGNY, FRANCE
317 2358 THOMAS PHILIPPE 06:17:30 F 71 115.00 EPINAL, FRANCE
318 2172 DAZIN ALEXIS 06:17:55 E 103 99.00 BONDUES, France
319 2100 COGET THIERRY 06:19:50 E 104 98.50 OLLIOULES, FRANCE
320 2058 BASSEREAU CHRISTELLE 06:20:12 AB 10 145.50 HYERES, FRANCE
321 2343 RODRIGUEZ REMEDIOS 06:22:08 A 8 146.50 , FRANCE
322 2344 ANDRIEU DELPHINE 06:22:08 J 6 147.50 , FRANCE
323 2204 ? ? 06:24:59 J 7 147.00 ,
324 2094 BOISSON CYRILLE 06:25:30 E 105 98.00 HYERES, FRANCE
325 2089 LINSART JOEL 06:25:57 F 72 114.50 LUCE, FRANCE
326 2173 LECLERCQ GUIREC 06:26:04 E 106 97.50 BONDUES, FRANCE
327 339 KAWA MARIAN 06:26:59 G1 32 134.50 UCCLE, Belgique
328 459 LAYER GILBERT 06:27:18 G1 33 134.00 CHARBUY, FRANCE
329 2295 STANTON DAVID 06:28:07 G2 14 143.50 LONDON, Royaume-Uni
330 2003 BIMET BRUNO 06:28:49 E 107 97.00 GRENOBLE, FRANCE
331 2011 GHEYS DIRK 06:29:33 F 73 114.00 MOL, BELGIQUE
332 2346 ? ? 06:30:51 J 8 146.50 ,
333 2070 MORRELL NICHOLAS 06:31:27 G2 15 143.00 ESHER, Royaume-Uni
334 2025 GUYON ERIC 06:31:32 E 108 96.50 LA MURETTE, FRANCE
335 2069 MORRELL PATRICK 06:31:52 D 47 127.00 FULHAM, UK
336 2225 SONATORE FRANCOIS 06:32:23 D 48 126.50 URCEL, FRANCE
337 2098 JUVIN PIERRE HENRI 06:33:44 F 74 113.50 ROMANS, FRANCE
338 2007 VAN CANEGEM VEERLE 06:33:56 AB 11 145.00 GENT, BELGIQUE
339 2131 DUNAN DAVID 06:35:05 E 109 96.00 VILLEFRANCHE SUR MER, FRANCE
340 2079 JACOB STEPHANE 06:37:04 E 110 95.50 LES COTES D AREY, FRANCE
341 2015 MORI DOMINIQUE 06:37:17 F 75 113.00 CHELLES, France
342 2250 VAN ECK RAYMOND 06:40:19 D 49 126.00 AMSTERDAM, Pays-bas
343 2018 BARRAGUE ALAIN 06:40:28 F 76 112.50 ROISSY EN BRIE, FRANCE
344 2213 DOUALLY STEPHANE 06:51:33 F 77 112.00 PEGOMAS, FRANCE
345 2009 BENIT FRANCIS 06:54:47 F 78 111.50 SAINT-RAPHAEL, France
346 2031 LATOUR YVES 06:55:22 G2 16 142.50 GOLF JUAN, FRANCE
347 2021 CETINOK BURAK 06:59:53 D 50 125.50 London, Royaume-Uni
348 2302 MAZZALOVO RINO 07:07:59 G1 34 133.50 SAINT RAPHAEL, FRANCE
349 2304 ANSELMETTI ROGER 07:08:23 G2 17 142.00 SAINT RAPHAEL, FRANCE
350 2112 BOWLES DOMINIC 07:08:24 F 79 111.00 CAMBRIDGE, Royaume-Uni
351 2113 BOOTH ALISON 07:08:50 B 4 148.50 CAMBRIDGE, Royaume-Uni
352 2255 ZISSEL JEAN FRANCOIS 07:09:11 C 31 135.00 SAINT RAPHAEL, FRANCE
353 2042 MOORE STEVE 07:10:38 F 80 110.50 NORTHAMPTON, Royaume-Uni
354 546 ? ? 07:11:22 J 9 146.00 ,
355 547 ? ? 07:11:22 J 10 145.50 ,
356 2046 FORBESNIXON DAVID 07:11:55 F 81 110.00 KENT, Royaume-Uni
357 2080 KONSTA SIMON 07:12:00 F 82 109.50 NEWBURY, Royaume-Uni
358 2047 TOSH DAVID 07:12:09 F 83 109.00 HAMPSHIRE, Royaume-Uni
359 2045 DONALD NICHOLAS 07:15:00 C 32 134.50 TONBRIDGE, Royaume-Uni
360 428 JASPERS DIANNE 07:16:19 AB 12 144.50 VALBURG, Pays-Bas
361 427 PETIT ERIC 07:16:21 E 111 95.00 VALBURG, Pays-Bas
362 217 CANNAKAMMA DEERAN 07:17:38 E 112 94.50 IMPERIA, Italie
363 519 VAN DER HOOG ROB 07:27:05 G1 35 133.00 ZWIJNDRECHT, Pays-Bas
364 2200 DUFRANCATEL MARYSE 07:33:36 B 5 148.00 ST-RAPHAEL, France
365 545 RODRIGUEZ XAVIER 08:12:42 D 51 125.00 EAUBONNE, FRANCE

La Picarde Baie de Somme

Après une saison 2020 très particulière et face à cette pandémie qui s'étire en longueur, nous avons dû nous adapter.

Ainsi, c'est avec beaucoup de regrets que nous vous annonçons que La Picarde Baie de Somme ne sera pas organisée en 2021.

Nous travaillons afin que vous puissiez relever le défi de manière alternative.

Nous vous tiendrons informés.
TOP